sensor_id;sensor_type;location;lat;lon;timestamp;P1;durP1;ratioP1;P2;durP2;ratioP2
85328;SDS011;76315;47.638;21.652;2024-02-16T00:00:04;33.20;;;15.00;;
85328;SDS011;76315;47.638;21.652;2024-02-16T00:02:31;31.52;;;14.68;;
85328;SDS011;76315;47.638;21.652;2024-02-16T00:04:57;24.27;;;12.70;;
85328;SDS011;76315;47.638;21.652;2024-02-16T00:07:23;27.48;;;13.70;;
85328;SDS011;76315;47.638;21.652;2024-02-16T00:09:49;22.73;;;12.02;;
85328;SDS011;76315;47.638;21.652;2024-02-16T00:12:14;25.43;;;12.60;;
85328;SDS011;76315;47.638;21.652;2024-02-16T00:14:41;21.33;;;11.35;;
85328;SDS011;76315;47.638;21.652;2024-02-16T00:17:07;25.27;;;12.20;;
85328;SDS011;76315;47.638;21.652;2024-02-16T00:19:35;27.00;;;11.85;;
85328;SDS011;76315;47.638;21.652;2024-02-16T00:22:01;29.23;;;12.45;;
85328;SDS011;76315;47.638;21.652;2024-02-16T00:24:26;27.48;;;12.18;;
85328;SDS011;76315;47.638;21.652;2024-02-16T00:26:52;21.43;;;10.23;;
85328;SDS011;76315;47.638;21.652;2024-02-16T00:29:18;23.37;;;10.73;;
85328;SDS011;76315;47.638;21.652;2024-02-16T00:31:44;24.80;;;10.68;;
85328;SDS011;76315;47.638;21.652;2024-02-16T00:34:10;23.65;;;10.55;;
85328;SDS011;76315;47.638;21.652;2024-02-16T00:36:36;20.98;;;10.27;;
85328;SDS011;76315;47.638;21.652;2024-02-16T00:39:01;22.10;;;10.37;;
85328;SDS011;76315;47.638;21.652;2024-02-16T00:41:28;20.65;;;10.27;;
85328;SDS011;76315;47.638;21.652;2024-02-16T00:43:54;24.08;;;12.63;;
85328;SDS011;76315;47.638;21.652;2024-02-16T00:46:21;22.15;;;11.40;;
85328;SDS011;76315;47.638;21.652;2024-02-16T00:48:48;19.77;;;10.07;;
85328;SDS011;76315;47.638;21.652;2024-02-16T00:51:15;20.88;;;10.13;;
85328;SDS011;76315;47.638;21.652;2024-02-16T00:53:40;20.03;;;9.83;;
85328;SDS011;76315;47.638;21.652;2024-02-16T00:56:06;19.15;;;9.10;;
85328;SDS011;76315;47.638;21.652;2024-02-16T00:58:32;20.25;;;8.45;;
85328;SDS011;76315;47.638;21.652;2024-02-16T01:00:58;21.60;;;9.73;;
85328;SDS011;76315;47.638;21.652;2024-02-16T01:03:24;21.77;;;9.35;;
85328;SDS011;76315;47.638;21.652;2024-02-16T01:05:51;23.37;;;10.07;;
85328;SDS011;76315;47.638;21.652;2024-02-16T01:08:17;17.92;;;9.88;;
85328;SDS011;76315;47.638;21.652;2024-02-16T01:10:43;20.77;;;10.40;;
85328;SDS011;76315;47.638;21.652;2024-02-16T01:13:09;20.00;;;10.77;;
85328;SDS011;76315;47.638;21.652;2024-02-16T01:15:35;21.02;;;10.23;;
85328;SDS011;76315;47.638;21.652;2024-02-16T01:18:02;26.02;;;10.85;;
85328;SDS011;76315;47.638;21.652;2024-02-16T01:20:29;19.80;;;10.33;;
85328;SDS011;76315;47.638;21.652;2024-02-16T01:22:56;18.50;;;9.45;;
85328;SDS011;76315;47.638;21.652;2024-02-16T01:25:22;17.30;;;9.27;;
85328;SDS011;76315;47.638;21.652;2024-02-16T01:27:47;23.47;;;9.10;;
85328;SDS011;76315;47.638;21.652;2024-02-16T01:30:13;18.05;;;10.30;;
85328;SDS011;76315;47.638;21.652;2024-02-16T01:32:40;20.27;;;9.02;;
85328;SDS011;76315;47.638;21.652;2024-02-16T01:35:06;20.67;;;9.93;;
85328;SDS011;76315;47.638;21.652;2024-02-16T01:37:32;27.20;;;11.15;;
85328;SDS011;76315;47.638;21.652;2024-02-16T01:39:57;21.27;;;9.23;;
85328;SDS011;76315;47.638;21.652;2024-02-16T01:42:24;19.42;;;9.20;;
85328;SDS011;76315;47.638;21.652;2024-02-16T01:44:50;16.38;;;9.63;;
85328;SDS011;76315;47.638;21.652;2024-02-16T01:47:16;18.23;;;9.95;;
85328;SDS011;76315;47.638;21.652;2024-02-16T01:49:41;20.90;;;8.17;;
85328;SDS011;76315;47.638;21.652;2024-02-16T01:52:07;17.10;;;8.48;;
85328;SDS011;76315;47.638;21.652;2024-02-16T01:54:34;15.77;;;8.03;;
85328;SDS011;76315;47.638;21.652;2024-02-16T01:56:59;24.75;;;9.55;;
85328;SDS011;76315;47.638;21.652;2024-02-16T01:59:26;15.70;;;8.90;;
85328;SDS011;76315;47.638;21.652;2024-02-16T02:01:51;20.30;;;8.27;;
85328;SDS011;76315;47.638;21.652;2024-02-16T02:04:17;15.57;;;7.43;;
85328;SDS011;76315;47.638;21.652;2024-02-16T02:06:43;16.05;;;8.23;;
85328;SDS011;76315;47.638;21.652;2024-02-16T02:09:08;16.20;;;6.97;;
85328;SDS011;76315;47.638;21.652;2024-02-16T02:11:34;15.82;;;7.25;;
85328;SDS011;76315;47.638;21.652;2024-02-16T02:14:00;18.27;;;8.63;;
85328;SDS011;76315;47.638;21.652;2024-02-16T02:16:25;12.93;;;6.60;;
85328;SDS011;76315;47.638;21.652;2024-02-16T02:18:52;14.98;;;7.55;;
85328;SDS011;76315;47.638;21.652;2024-02-16T02:21:17;15.20;;;7.38;;
85328;SDS011;76315;47.638;21.652;2024-02-16T02:23:43;18.20;;;7.87;;
85328;SDS011;76315;47.638;21.652;2024-02-16T02:26:09;18.55;;;8.43;;
85328;SDS011;76315;47.638;21.652;2024-02-16T02:28:34;12.25;;;7.07;;
85328;SDS011;76315;47.638;21.652;2024-02-16T02:31:00;12.23;;;6.80;;
85328;SDS011;76315;47.638;21.652;2024-02-16T02:33:25;14.18;;;6.07;;
85328;SDS011;76315;47.638;21.652;2024-02-16T02:35:51;14.63;;;7.43;;
85328;SDS011;76315;47.638;21.652;2024-02-16T02:38:17;14.25;;;8.10;;
85328;SDS011;76315;47.638;21.652;2024-02-16T02:40:43;13.45;;;7.60;;
85328;SDS011;76315;47.638;21.652;2024-02-16T02:43:08;13.83;;;6.90;;
85328;SDS011;76315;47.638;21.652;2024-02-16T02:45:34;18.23;;;7.50;;
85328;SDS011;76315;47.638;21.652;2024-02-16T02:48:00;11.80;;;6.63;;
85328;SDS011;76315;47.638;21.652;2024-02-16T02:50:25;17.25;;;6.68;;
85328;SDS011;76315;47.638;21.652;2024-02-16T02:52:51;16.33;;;6.68;;
85328;SDS011;76315;47.638;21.652;2024-02-16T02:55:17;14.97;;;7.00;;
85328;SDS011;76315;47.638;21.652;2024-02-16T02:57:43;15.20;;;7.03;;
85328;SDS011;76315;47.638;21.652;2024-02-16T03:00:08;20.83;;;8.05;;
85328;SDS011;76315;47.638;21.652;2024-02-16T03:02:39;15.82;;;7.53;;
85328;SDS011;76315;47.638;21.652;2024-02-16T03:05:05;11.10;;;5.37;;
85328;SDS011;76315;47.638;21.652;2024-02-16T03:07:35;17.83;;;6.45;;
85328;SDS011;76315;47.638;21.652;2024-02-16T03:10:01;15.15;;;6.18;;
85328;SDS011;76315;47.638;21.652;2024-02-16T03:12:28;16.73;;;6.15;;
85328;SDS011;76315;47.638;21.652;2024-02-16T03:14:55;13.37;;;6.47;;
85328;SDS011;76315;47.638;21.652;2024-02-16T03:17:21;15.80;;;7.93;;
85328;SDS011;76315;47.638;21.652;2024-02-16T03:19:46;12.40;;;5.45;;
85328;SDS011;76315;47.638;21.652;2024-02-16T03:22:12;11.30;;;5.97;;
85328;SDS011;76315;47.638;21.652;2024-02-16T03:24:38;11.02;;;5.65;;
85328;SDS011;76315;47.638;21.652;2024-02-16T03:27:05;15.03;;;6.83;;
85328;SDS011;76315;47.638;21.652;2024-02-16T03:29:30;14.35;;;7.10;;
85328;SDS011;76315;47.638;21.652;2024-02-16T03:31:57;12.85;;;5.82;;
85328;SDS011;76315;47.638;21.652;2024-02-16T03:34:26;15.80;;;6.40;;
85328;SDS011;76315;47.638;21.652;2024-02-16T03:36:57;15.45;;;7.28;;
85328;SDS011;76315;47.638;21.652;2024-02-16T03:39:27;13.85;;;6.30;;
85328;SDS011;76315;47.638;21.652;2024-02-16T03:41:58;12.75;;;5.45;;
85328;SDS011;76315;47.638;21.652;2024-02-16T03:45:05;13.30;;;6.35;;
85328;SDS011;76315;47.638;21.652;2024-02-16T03:48:15;12.80;;;6.07;;
85328;SDS011;76315;47.638;21.652;2024-02-16T03:50:42;13.52;;;6.25;;
85328;SDS011;76315;47.638;21.652;2024-02-16T03:53:17;10.80;;;5.28;;
85328;SDS011;76315;47.638;21.652;2024-02-16T03:55:47;15.20;;;5.65;;
85328;SDS011;76315;47.638;21.652;2024-02-16T03:58:28;12.10;;;6.57;;
85328;SDS011;76315;47.638;21.652;2024-02-16T04:00:54;11.07;;;4.90;;
85328;SDS011;76315;47.638;21.652;2024-02-16T04:03:22;14.63;;;6.43;;
85328;SDS011;76315;47.638;21.652;2024-02-16T04:05:50;11.57;;;5.13;;
85328;SDS011;76315;47.638;21.652;2024-02-16T04:08:18;13.90;;;6.32;;
85328;SDS011;76315;47.638;21.652;2024-02-16T04:11:16;10.38;;;4.65;;
85328;SDS011;76315;47.638;21.652;2024-02-16T04:14:32;14.23;;;4.60;;
85328;SDS011;76315;47.638;21.652;2024-02-16T04:17:48;12.75;;;5.30;;
85328;SDS011;76315;47.638;21.652;2024-02-16T04:23:46;11.93;;;5.20;;
85328;SDS011;76315;47.638;21.652;2024-02-16T04:26:12;11.70;;;5.67;;
85328;SDS011;76315;47.638;21.652;2024-02-16T04:28:39;10.63;;;4.70;;
85328;SDS011;76315;47.638;21.652;2024-02-16T04:31:04;13.45;;;6.53;;
85328;SDS011;76315;47.638;21.652;2024-02-16T04:33:30;13.73;;;5.97;;
85328;SDS011;76315;47.638;21.652;2024-02-16T04:35:55;12.37;;;5.67;;
85328;SDS011;76315;47.638;21.652;2024-02-16T04:38:21;13.48;;;6.03;;
85328;SDS011;76315;47.638;21.652;2024-02-16T04:40:47;15.07;;;6.07;;
85328;SDS011;76315;47.638;21.652;2024-02-16T04:43:12;14.07;;;5.78;;
85328;SDS011;76315;47.638;21.652;2024-02-16T04:45:38;14.53;;;7.03;;
85328;SDS011;76315;47.638;21.652;2024-02-16T04:55:52;12.25;;;5.22;;
85328;SDS011;76315;47.638;21.652;2024-02-16T04:58:20;13.20;;;4.93;;
85328;SDS011;76315;47.638;21.652;2024-02-16T05:00:47;12.45;;;5.18;;
85328;SDS011;76315;47.638;21.652;2024-02-16T05:03:12;11.53;;;5.17;;
85328;SDS011;76315;47.638;21.652;2024-02-16T05:05:38;12.90;;;6.60;;
85328;SDS011;76315;47.638;21.652;2024-02-16T05:08:04;13.27;;;5.80;;
85328;SDS011;76315;47.638;21.652;2024-02-16T05:10:30;10.73;;;5.82;;
85328;SDS011;76315;47.638;21.652;2024-02-16T05:12:56;13.77;;;5.40;;
85328;SDS011;76315;47.638;21.652;2024-02-16T05:15:23;10.98;;;5.43;;
85328;SDS011;76315;47.638;21.652;2024-02-16T05:17:49;9.55;;;4.95;;
85328;SDS011;76315;47.638;21.652;2024-02-16T05:20:15;13.07;;;5.07;;
85328;SDS011;76315;47.638;21.652;2024-02-16T05:22:44;14.52;;;6.13;;
85328;SDS011;76315;47.638;21.652;2024-02-16T05:25:11;12.40;;;4.80;;
85328;SDS011;76315;47.638;21.652;2024-02-16T05:27:40;12.30;;;5.47;;
85328;SDS011;76315;47.638;21.652;2024-02-16T05:30:05;14.67;;;4.93;;
85328;SDS011;76315;47.638;21.652;2024-02-16T05:32:35;11.80;;;5.68;;
85328;SDS011;76315;47.638;21.652;2024-02-16T05:35:02;14.13;;;5.30;;
85328;SDS011;76315;47.638;21.652;2024-02-16T05:37:36;12.65;;;5.43;;
85328;SDS011;76315;47.638;21.652;2024-02-16T05:40:10;8.57;;;4.03;;
85328;SDS011;76315;47.638;21.652;2024-02-16T05:42:55;14.27;;;5.30;;
85328;SDS011;76315;47.638;21.652;2024-02-16T05:45:25;9.18;;;5.28;;
85328;SDS011;76315;47.638;21.652;2024-02-16T05:47:54;12.80;;;4.95;;
85328;SDS011;76315;47.638;21.652;2024-02-16T05:50:20;16.07;;;5.50;;
85328;SDS011;76315;47.638;21.652;2024-02-16T05:52:46;11.15;;;5.10;;
85328;SDS011;76315;47.638;21.652;2024-02-16T05:55:12;9.13;;;4.37;;
85328;SDS011;76315;47.638;21.652;2024-02-16T05:57:43;15.13;;;5.97;;
85328;SDS011;76315;47.638;21.652;2024-02-16T06:00:09;12.15;;;6.90;;
85328;SDS011;76315;47.638;21.652;2024-02-16T06:02:35;17.20;;;6.95;;
85328;SDS011;76315;47.638;21.652;2024-02-16T06:05:02;32.80;;;11.68;;
85328;SDS011;76315;47.638;21.652;2024-02-16T06:07:28;32.83;;;13.50;;
85328;SDS011;76315;47.638;21.652;2024-02-16T06:09:57;26.08;;;11.80;;
85328;SDS011;76315;47.638;21.652;2024-02-16T06:12:23;19.43;;;7.03;;
85328;SDS011;76315;47.638;21.652;2024-02-16T06:14:51;17.23;;;7.28;;
85328;SDS011;76315;47.638;21.652;2024-02-16T06:17:18;14.70;;;6.93;;
85328;SDS011;76315;47.638;21.652;2024-02-16T06:22:20;17.48;;;5.63;;
85328;SDS011;76315;47.638;21.652;2024-02-16T06:24:45;17.65;;;7.40;;
85328;SDS011;76315;47.638;21.652;2024-02-16T06:27:11;17.60;;;7.67;;
85328;SDS011;76315;47.638;21.652;2024-02-16T06:29:37;14.40;;;6.78;;
85328;SDS011;76315;47.638;21.652;2024-02-16T06:32:02;19.95;;;7.55;;
85328;SDS011;76315;47.638;21.652;2024-02-16T06:34:31;16.45;;;7.90;;
85328;SDS011;76315;47.638;21.652;2024-02-16T06:36:57;20.23;;;8.77;;
85328;SDS011;76315;47.638;21.652;2024-02-16T06:39:22;16.15;;;8.35;;
85328;SDS011;76315;47.638;21.652;2024-02-16T06:41:48;16.57;;;8.43;;
85328;SDS011;76315;47.638;21.652;2024-02-16T06:44:16;20.15;;;8.30;;
85328;SDS011;76315;47.638;21.652;2024-02-16T06:46:42;19.87;;;10.23;;
85328;SDS011;76315;47.638;21.652;2024-02-16T06:49:08;20.70;;;9.45;;
85328;SDS011;76315;47.638;21.652;2024-02-16T06:51:33;16.37;;;8.40;;
85328;SDS011;76315;47.638;21.652;2024-02-16T06:53:59;18.17;;;8.95;;
85328;SDS011;76315;47.638;21.652;2024-02-16T06:56:24;21.03;;;9.87;;
85328;SDS011;76315;47.638;21.652;2024-02-16T06:58:50;18.00;;;9.50;;
85328;SDS011;76315;47.638;21.652;2024-02-16T07:01:16;20.77;;;10.63;;
85328;SDS011;76315;47.638;21.652;2024-02-16T07:03:43;20.60;;;10.52;;
85328;SDS011;76315;47.638;21.652;2024-02-16T07:06:09;24.70;;;11.35;;
85328;SDS011;76315;47.638;21.652;2024-02-16T07:08:38;24.07;;;12.10;;
85328;SDS011;76315;47.638;21.652;2024-02-16T07:11:10;24.00;;;12.13;;
85328;SDS011;76315;47.638;21.652;2024-02-16T07:13:39;32.47;;;14.63;;
85328;SDS011;76315;47.638;21.652;2024-02-16T07:16:05;35.57;;;15.30;;
85328;SDS011;76315;47.638;21.652;2024-02-16T07:18:34;25.67;;;12.20;;
85328;SDS011;76315;47.638;21.652;2024-02-16T07:20:59;25.13;;;11.25;;
85328;SDS011;76315;47.638;21.652;2024-02-16T07:23:25;18.88;;;9.68;;
85328;SDS011;76315;47.638;21.652;2024-02-16T07:25:51;17.90;;;9.23;;
85328;SDS011;76315;47.638;21.652;2024-02-16T07:28:20;13.47;;;7.27;;
85328;SDS011;76315;47.638;21.652;2024-02-16T07:30:46;19.13;;;8.45;;
85328;SDS011;76315;47.638;21.652;2024-02-16T07:33:11;15.13;;;8.90;;
85328;SDS011;76315;47.638;21.652;2024-02-16T07:35:37;15.05;;;8.30;;
85328;SDS011;76315;47.638;21.652;2024-02-16T07:38:03;17.60;;;8.43;;
85328;SDS011;76315;47.638;21.652;2024-02-16T07:40:29;17.83;;;8.43;;
85328;SDS011;76315;47.638;21.652;2024-02-16T07:42:56;18.13;;;9.00;;
85328;SDS011;76315;47.638;21.652;2024-02-16T07:45:21;17.85;;;9.25;;
85328;SDS011;76315;47.638;21.652;2024-02-16T07:47:50;18.88;;;9.20;;
85328;SDS011;76315;47.638;21.652;2024-02-16T07:50:19;16.73;;;8.00;;
85328;SDS011;76315;47.638;21.652;2024-02-16T07:52:45;14.63;;;8.32;;
85328;SDS011;76315;47.638;21.652;2024-02-16T07:55:11;17.48;;;8.60;;
85328;SDS011;76315;47.638;21.652;2024-02-16T07:57:37;15.10;;;7.47;;
85328;SDS011;76315;47.638;21.652;2024-02-16T08:00:03;16.95;;;8.70;;
85328;SDS011;76315;47.638;21.652;2024-02-16T08:02:30;17.88;;;9.20;;
85328;SDS011;76315;47.638;21.652;2024-02-16T08:04:56;18.10;;;8.77;;
85328;SDS011;76315;47.638;21.652;2024-02-16T08:07:21;19.63;;;10.57;;
85328;SDS011;76315;47.638;21.652;2024-02-16T08:09:47;17.63;;;8.90;;
85328;SDS011;76315;47.638;21.652;2024-02-16T08:12:14;24.80;;;10.45;;
85328;SDS011;76315;47.638;21.652;2024-02-16T08:14:40;26.10;;;12.97;;
85328;SDS011;76315;47.638;21.652;2024-02-16T08:17:06;22.37;;;11.27;;
85328;SDS011;76315;47.638;21.652;2024-02-16T08:19:32;20.08;;;10.77;;
85328;SDS011;76315;47.638;21.652;2024-02-16T08:22:00;16.15;;;9.52;;
85328;SDS011;76315;47.638;21.652;2024-02-16T08:24:26;15.17;;;8.33;;
85328;SDS011;76315;47.638;21.652;2024-02-16T08:26:52;18.70;;;9.60;;
85328;SDS011;76315;47.638;21.652;2024-02-16T08:29:17;17.20;;;9.25;;
85328;SDS011;76315;47.638;21.652;2024-02-16T08:31:43;17.10;;;7.77;;
85328;SDS011;76315;47.638;21.652;2024-02-16T08:34:09;17.60;;;9.65;;
85328;SDS011;76315;47.638;21.652;2024-02-16T08:36:35;19.87;;;9.00;;
85328;SDS011;76315;47.638;21.652;2024-02-16T08:39:03;17.20;;;10.00;;
85328;SDS011;76315;47.638;21.652;2024-02-16T08:41:28;20.75;;;9.75;;
85328;SDS011;76315;47.638;21.652;2024-02-16T08:43:54;17.90;;;10.13;;
85328;SDS011;76315;47.638;21.652;2024-02-16T08:46:23;18.25;;;9.00;;
85328;SDS011;76315;47.638;21.652;2024-02-16T08:48:48;20.55;;;9.30;;
85328;SDS011;76315;47.638;21.652;2024-02-16T08:51:14;17.27;;;8.80;;
85328;SDS011;76315;47.638;21.652;2024-02-16T08:53:40;17.15;;;9.32;;
85328;SDS011;76315;47.638;21.652;2024-02-16T08:56:09;15.50;;;8.70;;
85328;SDS011;76315;47.638;21.652;2024-02-16T08:58:36;15.75;;;8.68;;
85328;SDS011;76315;47.638;21.652;2024-02-16T09:01:04;18.38;;;8.95;;
85328;SDS011;76315;47.638;21.652;2024-02-16T09:03:29;17.40;;;8.47;;
85328;SDS011;76315;47.638;21.652;2024-02-16T09:06:01;14.38;;;7.45;;
85328;SDS011;76315;47.638;21.652;2024-02-16T09:08:28;15.57;;;7.32;;
85328;SDS011;76315;47.638;21.652;2024-02-16T09:10:58;16.77;;;8.88;;
85328;SDS011;76315;47.638;21.652;2024-02-16T09:13:35;16.05;;;8.00;;
85328;SDS011;76315;47.638;21.652;2024-02-16T09:16:01;14.87;;;8.03;;
85328;SDS011;76315;47.638;21.652;2024-02-16T09:18:28;13.20;;;6.80;;
85328;SDS011;76315;47.638;21.652;2024-02-16T09:20:54;13.98;;;7.13;;
85328;SDS011;76315;47.638;21.652;2024-02-16T09:23:20;14.20;;;7.07;;
85328;SDS011;76315;47.638;21.652;2024-02-16T09:25:49;15.37;;;6.93;;
85328;SDS011;76315;47.638;21.652;2024-02-16T09:28:20;14.52;;;7.85;;
85328;SDS011;76315;47.638;21.652;2024-02-16T09:30:48;14.13;;;8.10;;
85328;SDS011;76315;47.638;21.652;2024-02-16T09:33:13;16.45;;;7.57;;
85328;SDS011;76315;47.638;21.652;2024-02-16T09:35:42;16.80;;;8.23;;
85328;SDS011;76315;47.638;21.652;2024-02-16T09:38:07;16.20;;;8.67;;
85328;SDS011;76315;47.638;21.652;2024-02-16T09:40:35;14.75;;;8.30;;
85328;SDS011;76315;47.638;21.652;2024-02-16T09:43:01;12.75;;;7.10;;
85328;SDS011;76315;47.638;21.652;2024-02-16T09:45:28;14.75;;;7.63;;
85328;SDS011;76315;47.638;21.652;2024-02-16T09:47:57;13.10;;;7.20;;
85328;SDS011;76315;47.638;21.652;2024-02-16T09:50:23;14.70;;;7.90;;
85328;SDS011;76315;47.638;21.652;2024-02-16T09:52:59;14.30;;;7.38;;
85328;SDS011;76315;47.638;21.652;2024-02-16T09:55:25;17.77;;;7.13;;
85328;SDS011;76315;47.638;21.652;2024-02-16T09:58:00;12.43;;;7.07;;
85328;SDS011;76315;47.638;21.652;2024-02-16T10:00:26;13.10;;;7.05;;
85328;SDS011;76315;47.638;21.652;2024-02-16T10:02:53;12.47;;;7.00;;
85328;SDS011;76315;47.638;21.652;2024-02-16T10:05:22;13.82;;;7.22;;
85328;SDS011;76315;47.638;21.652;2024-02-16T10:08:00;12.98;;;7.00;;
85328;SDS011;76315;47.638;21.652;2024-02-16T10:10:45;13.52;;;7.22;;
85328;SDS011;76315;47.638;21.652;2024-02-16T10:13:18;15.73;;;7.87;;
85328;SDS011;76315;47.638;21.652;2024-02-16T10:15:44;14.88;;;7.88;;
85328;SDS011;76315;47.638;21.652;2024-02-16T10:18:10;13.50;;;7.27;;
85328;SDS011;76315;47.638;21.652;2024-02-16T10:20:35;14.50;;;7.07;;
85328;SDS011;76315;47.638;21.652;2024-02-16T10:25:45;13.68;;;6.82;;
85328;SDS011;76315;47.638;21.652;2024-02-16T10:28:11;13.63;;;6.73;;
85328;SDS011;76315;47.638;21.652;2024-02-16T10:30:42;13.68;;;6.47;;
85328;SDS011;76315;47.638;21.652;2024-02-16T10:33:09;12.95;;;6.68;;
85328;SDS011;76315;47.638;21.652;2024-02-16T10:35:37;11.43;;;6.15;;
85328;SDS011;76315;47.638;21.652;2024-02-16T10:38:04;12.05;;;6.60;;
85328;SDS011;76315;47.638;21.652;2024-02-16T10:40:37;11.23;;;6.27;;
85328;SDS011;76315;47.638;21.652;2024-02-16T10:43:04;12.93;;;6.60;;
85328;SDS011;76315;47.638;21.652;2024-02-16T10:45:48;14.70;;;7.63;;
85328;SDS011;76315;47.638;21.652;2024-02-16T10:48:17;15.02;;;7.55;;
85328;SDS011;76315;47.638;21.652;2024-02-16T10:50:43;15.53;;;8.93;;
85328;SDS011;76315;47.638;21.652;2024-02-16T10:53:18;16.30;;;9.52;;
85328;SDS011;76315;47.638;21.652;2024-02-16T10:55:58;18.52;;;8.65;;
85328;SDS011;76315;47.638;21.652;2024-02-16T10:58:27;15.48;;;8.70;;
85328;SDS011;76315;47.638;21.652;2024-02-16T11:00:53;10.90;;;6.45;;
85328;SDS011;76315;47.638;21.652;2024-02-16T11:03:24;12.90;;;6.57;;
85328;SDS011;76315;47.638;21.652;2024-02-16T11:05:50;15.88;;;7.43;;
85328;SDS011;76315;47.638;21.652;2024-02-16T11:08:16;15.77;;;8.00;;
85328;SDS011;76315;47.638;21.652;2024-02-16T11:10:59;14.18;;;6.82;;
85328;SDS011;76315;47.638;21.652;2024-02-16T11:13:26;12.93;;;6.73;;
85328;SDS011;76315;47.638;21.652;2024-02-16T11:15:57;11.25;;;6.07;;
85328;SDS011;76315;47.638;21.652;2024-02-16T11:18:30;14.02;;;6.63;;
85328;SDS011;76315;47.638;21.652;2024-02-16T11:20:56;13.52;;;6.80;;
85328;SDS011;76315;47.638;21.652;2024-02-16T11:23:34;13.13;;;6.15;;
85328;SDS011;76315;47.638;21.652;2024-02-16T11:26:03;10.83;;;6.10;;
85328;SDS011;76315;47.638;21.652;2024-02-16T11:28:40;12.18;;;6.10;;
85328;SDS011;76315;47.638;21.652;2024-02-16T11:31:06;11.45;;;5.72;;
85328;SDS011;76315;47.638;21.652;2024-02-16T11:33:35;13.27;;;5.78;;
85328;SDS011;76315;47.638;21.652;2024-02-16T11:36:04;14.00;;;6.50;;
85328;SDS011;76315;47.638;21.652;2024-02-16T11:38:35;12.90;;;6.10;;
85328;SDS011;76315;47.638;21.652;2024-02-16T11:41:01;13.02;;;6.90;;
85328;SDS011;76315;47.638;21.652;2024-02-16T11:43:30;14.02;;;7.43;;
85328;SDS011;76315;47.638;21.652;2024-02-16T11:45:57;14.50;;;6.77;;
85328;SDS011;76315;47.638;21.652;2024-02-16T11:48:24;15.50;;;8.10;;
85328;SDS011;76315;47.638;21.652;2024-02-16T11:51:03;15.68;;;8.30;;
85328;SDS011;76315;47.638;21.652;2024-02-16T11:53:32;13.32;;;6.80;;
85328;SDS011;76315;47.638;21.652;2024-02-16T11:55:58;14.00;;;6.97;;
85328;SDS011;76315;47.638;21.652;2024-02-16T11:58:25;15.35;;;8.05;;
85328;SDS011;76315;47.638;21.652;2024-02-16T12:00:51;16.98;;;7.97;;
85328;SDS011;76315;47.638;21.652;2024-02-16T12:03:22;14.27;;;7.55;;
85328;SDS011;76315;47.638;21.652;2024-02-16T12:05:52;16.63;;;8.57;;
85328;SDS011;76315;47.638;21.652;2024-02-16T12:08:19;15.03;;;8.30;;
85328;SDS011;76315;47.638;21.652;2024-02-16T12:10:48;17.75;;;8.10;;
85328;SDS011;76315;47.638;21.652;2024-02-16T12:13:18;15.20;;;7.68;;
85328;SDS011;76315;47.638;21.652;2024-02-16T12:15:44;13.43;;;7.63;;
85328;SDS011;76315;47.638;21.652;2024-02-16T12:21:02;13.70;;;7.87;;
85328;SDS011;76315;47.638;21.652;2024-02-16T12:23:32;12.43;;;7.40;;
85328;SDS011;76315;47.638;21.652;2024-02-16T12:25:59;14.27;;;7.43;;
85328;SDS011;76315;47.638;21.652;2024-02-16T12:28:28;13.23;;;7.40;;
85328;SDS011;76315;47.638;21.652;2024-02-16T12:31:00;14.40;;;7.40;;
85328;SDS011;76315;47.638;21.652;2024-02-16T12:33:35;13.63;;;7.50;;
85328;SDS011;76315;47.638;21.652;2024-02-16T12:36:09;13.15;;;7.55;;
85328;SDS011;76315;47.638;21.652;2024-02-16T12:41:13;14.13;;;7.10;;
85328;SDS011;76315;47.638;21.652;2024-02-16T12:43:54;14.73;;;7.45;;
85328;SDS011;76315;47.638;21.652;2024-02-16T12:46:20;11.83;;;6.63;;
85328;SDS011;76315;47.638;21.652;2024-02-16T12:48:53;13.17;;;6.57;;
85328;SDS011;76315;47.638;21.652;2024-02-16T12:51:19;14.57;;;7.18;;
85328;SDS011;76315;47.638;21.652;2024-02-16T12:53:45;13.75;;;7.88;;
85328;SDS011;76315;47.638;21.652;2024-02-16T12:56:11;14.27;;;7.40;;
85328;SDS011;76315;47.638;21.652;2024-02-16T12:58:37;12.87;;;6.60;;
85328;SDS011;76315;47.638;21.652;2024-02-16T13:01:02;13.00;;;7.40;;
85328;SDS011;76315;47.638;21.652;2024-02-16T13:03:31;14.75;;;7.22;;
85328;SDS011;76315;47.638;21.652;2024-02-16T13:06:00;14.90;;;7.70;;
85328;SDS011;76315;47.638;21.652;2024-02-16T13:08:26;15.02;;;7.22;;
85328;SDS011;76315;47.638;21.652;2024-02-16T13:10:52;13.20;;;7.23;;
85328;SDS011;76315;47.638;21.652;2024-02-16T13:13:18;12.93;;;7.13;;
85328;SDS011;76315;47.638;21.652;2024-02-16T13:15:43;12.03;;;6.73;;
85328;SDS011;76315;47.638;21.652;2024-02-16T13:18:09;11.67;;;6.57;;
85328;SDS011;76315;47.638;21.652;2024-02-16T13:20:34;13.37;;;6.30;;
85328;SDS011;76315;47.638;21.652;2024-02-16T13:23:00;11.50;;;6.83;;
85328;SDS011;76315;47.638;21.652;2024-02-16T13:25:26;10.77;;;6.28;;
85328;SDS011;76315;47.638;21.652;2024-02-16T13:27:52;13.68;;;6.38;;
85328;SDS011;76315;47.638;21.652;2024-02-16T13:30:17;11.80;;;6.47;;
85328;SDS011;76315;47.638;21.652;2024-02-16T13:32:45;12.57;;;6.57;;
85328;SDS011;76315;47.638;21.652;2024-02-16T13:35:11;14.70;;;7.18;;
85328;SDS011;76315;47.638;21.652;2024-02-16T13:37:41;13.30;;;7.13;;
85328;SDS011;76315;47.638;21.652;2024-02-16T13:40:07;13.25;;;7.10;;
85328;SDS011;76315;47.638;21.652;2024-02-16T13:42:38;13.82;;;6.90;;
85328;SDS011;76315;47.638;21.652;2024-02-16T13:45:04;15.57;;;7.43;;
85328;SDS011;76315;47.638;21.652;2024-02-16T13:47:29;14.65;;;7.10;;
85328;SDS011;76315;47.638;21.652;2024-02-16T13:49:55;14.45;;;7.70;;
85328;SDS011;76315;47.638;21.652;2024-02-16T13:52:23;14.57;;;7.68;;
85328;SDS011;76315;47.638;21.652;2024-02-16T13:54:49;13.63;;;7.00;;
85328;SDS011;76315;47.638;21.652;2024-02-16T13:57:15;14.18;;;7.22;;
85328;SDS011;76315;47.638;21.652;2024-02-16T13:59:41;11.80;;;7.10;;
85328;SDS011;76315;47.638;21.652;2024-02-16T14:02:07;17.27;;;8.25;;
85328;SDS011;76315;47.638;21.652;2024-02-16T14:04:32;11.60;;;7.17;;
85328;SDS011;76315;47.638;21.652;2024-02-16T14:06:58;13.32;;;7.32;;
85328;SDS011;76315;47.638;21.652;2024-02-16T14:09:24;13.27;;;7.13;;
85328;SDS011;76315;47.638;21.652;2024-02-16T14:11:49;11.43;;;6.57;;
85328;SDS011;76315;47.638;21.652;2024-02-16T14:14:16;13.20;;;6.75;;
85328;SDS011;76315;47.638;21.652;2024-02-16T14:16:42;13.47;;;6.43;;
85328;SDS011;76315;47.638;21.652;2024-02-16T14:19:08;15.65;;;7.13;;
85328;SDS011;76315;47.638;21.652;2024-02-16T14:21:34;14.10;;;7.47;;
85328;SDS011;76315;47.638;21.652;2024-02-16T14:24:00;14.52;;;7.45;;
85328;SDS011;76315;47.638;21.652;2024-02-16T14:26:28;12.07;;;6.90;;
85328;SDS011;76315;47.638;21.652;2024-02-16T14:28:54;15.67;;;7.57;;
85328;SDS011;76315;47.638;21.652;2024-02-16T14:31:20;12.40;;;6.35;;
85328;SDS011;76315;47.638;21.652;2024-02-16T14:33:47;15.32;;;7.68;;
85328;SDS011;76315;47.638;21.652;2024-02-16T14:36:13;15.00;;;7.53;;
85328;SDS011;76315;47.638;21.652;2024-02-16T14:38:39;12.90;;;7.17;;
85328;SDS011;76315;47.638;21.652;2024-02-16T14:41:05;15.18;;;7.75;;
85328;SDS011;76315;47.638;21.652;2024-02-16T14:43:32;13.40;;;8.48;;
85328;SDS011;76315;47.638;21.652;2024-02-16T14:45:58;12.18;;;7.25;;